Dix Hills, New York
Current Conditions -  °F | °C
As of 12:53 PM on Thursday 27 Nov 2014 (Local Time) from KFRG Reporting Station
Overcast Overcast  
Wind Chill: 34°   Ceiling: 2000
Heat Index: 39°   Visibility: 10mi
Dew Point: 30°   Wind: 7mph
Humidity: 70%   Direction: 320°NW
Pressure: 29.98"   Gusts: NA
Location:  40.81°N, 73.32°W
Report Text: KFRG 271753Z 32006KT 10SM OVC020 04/M01 A2998 RMK AO2 SLP151 60000 T00391011 10039 20028 58006
Loading
Personal Weather Stations






























Interactive Weather Map New forecast layout! Learn more

10-Day Weather Forecast

Advertisements
Track Severe Weather on mobile